Time;durP1;ratioP1;P1;durP2;ratioP2;P2;SDS_P1;SDS_P2;PMS_P1;PMS_P2;Temp;Humidity;BMP_temperature;BMP_pressure;BME280_temperature;BME280_humidity;BME280_pressure;Samples;Min_cycle;Max_cycle;Signal;HPM_P1;HPM_P2
2023/07/31 00:02:15;;;;;;;2.33;1.60;;;18.70;99.90;;;;;;5033899;28;20235;-76
2023/07/31 00:04:41;;;;;;;1.83;1.73;;;18.70;99.90;;;;;;5049676;28;20260;-77
2023/07/31 00:07:07;;;;;;;1.60;1.60;;;18.60;99.90;;;;;;5050354;28;20279;-77
2023/07/31 00:09:33;;;;;;;2.50;2.40;;;18.60;99.90;;;;;;5033651;28;20169;-77
2023/07/31 00:11:59;;;;;;;3.47;1.80;;;18.60;99.90;;;;;;5033965;28;20180;-77
2023/07/31 00:14:25;;;;;;;2.20;1.90;;;18.70;99.90;;;;;;5034331;28;20537;-76
2023/07/31 00:16:51;;;;;;;1.50;1.50;;;18.80;99.90;;;;;;5044793;28;20188;-77
2023/07/31 00:19:17;;;;;;;2.20;2.00;;;18.90;99.90;;;;;;5028909;28;20176;-77
2023/07/31 00:21:43;;;;;;;1.80;1.70;;;18.90;99.90;;;;;;5015650;28;20180;-76
2023/07/31 00:24:09;;;;;;;3.23;2.03;;;18.90;99.90;;;;;;5016033;28;20245;-75
2023/07/31 00:26:35;;;;;;;1.87;1.77;;;18.90;99.90;;;;;;5015710;28;20187;-78
2023/07/31 00:29:01;;;;;;;1.93;1.87;;;18.90;99.90;;;;;;5032862;28;20254;-76
2023/07/31 00:31:26;;;;;;;2.97;1.97;;;18.80;99.90;;;;;;5042281;28;20190;-78
2023/07/31 00:33:52;;;;;;;2.03;1.80;;;18.80;99.90;;;;;;5033591;28;20180;-77
2023/07/31 00:36:18;;;;;;;2.07;1.93;;;18.70;99.90;;;;;;5032790;28;20884;-76
2023/07/31 00:38:44;;;;;;;1.80;1.70;;;18.80;99.90;;;;;;5032245;28;20194;-77
2023/07/31 00:41:09;;;;;;;2.40;2.20;;;18.70;99.90;;;;;;5033961;28;20179;-76
2023/07/31 00:43:35;;;;;;;1.67;1.57;;;18.60;99.90;;;;;;5033752;28;20181;-77
2023/07/31 00:46:01;;;;;;;1.90;1.80;;;18.60;99.90;;;;;;5033471;28;20219;-77
2023/07/31 00:48:27;;;;;;;1.87;1.77;;;18.60;99.90;;;;;;5033236;28;20212;-77
2023/07/31 00:50:53;;;;;;;2.17;1.90;;;18.60;99.90;;;;;;5033886;28;20195;-79
2023/07/31 00:53:19;;;;;;;3.03;1.70;;;18.60;99.90;;;;;;5037247;28;20247;-75
2023/07/31 00:55:45;;;;;;;2.30;2.10;;;18.60;99.90;;;;;;5036963;28;20173;-76
2023/07/31 00:58:10;;;;;;;2.07;1.90;;;18.70;99.90;;;;;;5037722;28;20184;-78
2023/07/31 01:00:36;;;;;;;1.90;1.80;;;18.60;99.90;;;;;;5042740;28;20636;-74
2023/07/31 01:03:02;;;;;;;1.93;1.80;;;18.60;99.90;;;;;;5034882;28;20199;-75
2023/07/31 01:05:46;;;;;;;3.90;1.90;;;18.60;99.90;;;;;;5034489;28;20183;-75
2023/07/31 01:08:40;;;;;;;1.70;1.60;;;18.70;99.90;;;;;;5034145;28;20199;-74
2023/07/31 01:11:30;;;;;;;2.13;2.00;;;18.70;99.90;;;;;;5042089;28;20211;-77
2023/07/31 01:13:56;;;;;;;1.90;1.80;;;18.60;99.90;;;;;;5035913;28;20185;-75
2023/07/31 01:16:22;;;;;;;2.10;2.00;;;18.60;99.90;;;;;;5053518;28;20187;-75
2023/07/31 01:18:48;;;;;;;2.23;2.03;;;18.60;99.90;;;;;;5037423;28;20263;-76
2023/07/31 01:21:36;;;;;;;2.07;1.97;;;18.60;99.90;;;;;;5044245;28;20196;-77
2023/07/31 01:24:32;;;;;;;1.70;1.70;;;18.60;99.90;;;;;;5056510;28;20230;-76
2023/07/31 01:27:14;;;;;;;2.23;2.00;;;18.50;99.90;;;;;;5038918;28;20636;-76
2023/07/31 01:29:52;;;;;;;1.90;1.80;;;18.40;99.90;;;;;;5036427;28;20227;-75
2023/07/31 01:32:19;;;;;;;1.90;1.80;;;18.30;99.90;;;;;;5036725;28;20157;-78
2023/07/31 01:34:46;;;;;;;2.07;1.97;;;18.20;99.90;;;;;;5036752;28;20207;-76
2023/07/31 01:37:12;;;;;;;2.10;2.00;;;18.30;99.90;;;;;;5037095;28;20169;-78
2023/07/31 01:39:38;;;;;;;3.60;2.17;;;18.30;99.90;;;;;;5036340;28;20183;-78
2023/07/31 01:42:04;;;;;;;2.00;1.90;;;18.30;99.90;;;;;;5039140;28;20727;-77
2023/07/31 01:44:30;;;;;;;1.80;1.80;;;18.30;99.90;;;;;;5052169;28;20597;-75
2023/07/31 01:46:56;;;;;;;2.00;1.90;;;18.30;99.90;;;;;;5037169;28;20180;-76
2023/07/31 01:49:22;;;;;;;1.77;1.67;;;18.20;99.90;;;;;;5036389;28;20191;-75
2023/07/31 01:51:48;;;;;;;2.43;2.27;;;18.30;99.90;;;;;;5036205;28;20259;-79
2023/07/31 01:54:13;;;;;;;2.30;2.20;;;18.20;99.90;;;;;;5036433;28;20175;-77
2023/07/31 01:56:39;;;;;;;2.40;2.20;;;18.30;99.90;;;;;;5037829;28;20226;-76
2023/07/31 01:59:05;;;;;;;2.40;2.30;;;18.20;99.90;;;;;;5036726;28;20215;-77
2023/07/31 02:01:31;;;;;;;2.70;2.50;;;18.20;99.90;;;;;;5036492;28;20185;-77
2023/07/31 02:03:57;;;;;;;2.50;2.40;;;18.20;99.90;;;;;;5035816;28;20231;-75
2023/07/31 02:06:23;;;;;;;2.93;2.47;;;18.20;99.90;;;;;;5035845;28;20279;-75
2023/07/31 02:08:49;;;;;;;2.93;2.73;;;18.20;99.90;;;;;;5035367;28;20200;-75
2023/07/31 02:11:15;;;;;;;5.23;2.97;;;18.30;99.90;;;;;;5035660;28;20168;-75
2023/07/31 02:13:41;;;;;;;2.90;2.70;;;18.30;99.90;;;;;;5035791;28;20267;-76
2023/07/31 02:16:09;;;;;;;2.60;2.40;;;18.30;99.90;;;;;;5035865;28;20173;-75
2023/07/31 02:18:35;;;;;;;2.33;2.20;;;18.30;99.90;;;;;;5036310;28;20196;-78
2023/07/31 02:21:00;;;;;;;2.30;2.20;;;18.30;99.90;;;;;;5017945;28;20714;-77
2023/07/31 02:23:26;;;;;;;2.30;2.20;;;18.30;99.90;;;;;;5035851;28;20585;-77
2023/07/31 02:25:52;;;;;;;3.20;2.60;;;18.20;99.90;;;;;;5035388;28;20184;-76
2023/07/31 02:28:18;;;;;;;2.47;2.27;;;18.20;99.90;;;;;;5035221;28;20201;-76
2023/07/31 02:30:46;;;;;;;2.07;1.97;;;18.30;99.90;;;;;;5035089;28;20180;-78
2023/07/31 02:33:12;;;;;;;1.60;1.60;;;18.30;99.90;;;;;;5037579;28;20169;-77
2023/07/31 02:35:38;;;;;;;2.47;2.27;;;18.30;99.90;;;;;;5035227;28;20226;-79
2023/07/31 02:38:04;;;;;;;2.17;2.07;;;18.30;99.90;;;;;;5039555;28;20276;-76
2023/07/31 02:40:29;;;;;;;2.73;1.80;;;18.20;99.90;;;;;;5035889;28;20230;-76
2023/07/31 02:42:55;;;;;;;2.03;1.73;;;18.30;99.90;;;;;;5035830;28;20176;-76
2023/07/31 02:45:21;;;;;;;2.50;2.33;;;18.20;99.90;;;;;;5036550;28;20249;-77
2023/07/31 02:47:47;;;;;;;2.30;2.10;;;18.20;99.90;;;;;;5018959;28;20312;-75
2023/07/31 02:50:15;;;;;;;2.20;2.10;;;18.20;99.90;;;;;;5038423;28;20524;-79
2023/07/31 02:52:41;;;;;;;2.23;2.07;;;18.10;99.90;;;;;;5055999;28;20203;-78
2023/07/31 02:55:07;;;;;;;2.13;2.03;;;18.00;99.90;;;;;;5057342;28;20620;-76
2023/07/31 02:57:33;;;;;;;1.80;1.70;;;17.90;99.90;;;;;;5040913;28;20172;-77
2023/07/31 02:59:58;;;;;;;2.00;1.90;;;17.80;99.90;;;;;;5018731;28;20177;-77
2023/07/31 03:02:24;;;;;;;1.90;1.80;;;17.80;99.90;;;;;;5035983;28;20168;-76
2023/07/31 03:04:50;;;;;;;2.43;1.73;;;17.80;99.90;;;;;;5035302;28;20259;-76
2023/07/31 03:07:16;;;;;;;1.77;1.67;;;17.70;99.90;;;;;;5034735;28;20235;-77
2023/07/31 03:09:42;;;;;;;1.67;1.63;;;17.60;99.90;;;;;;5016953;28;20601;-76
2023/07/31 03:12:08;;;;;;;2.93;2.07;;;17.60;99.90;;;;;;5034681;28;20218;-79
2023/07/31 03:14:34;;;;;;;2.00;1.90;;;17.60;99.90;;;;;;5018625;28;20542;-77
2023/07/31 03:17:00;;;;;;;1.77;1.67;;;17.60;99.90;;;;;;5034611;28;20230;-76
2023/07/31 03:19:26;;;;;;;1.67;1.57;;;17.50;99.90;;;;;;5035627;28;20302;-75
2023/07/31 03:21:51;;;;;;;2.00;1.90;;;17.40;99.90;;;;;;5047380;28;20165;-77
2023/07/31 03:24:23;;;;;;;2.27;2.00;;;17.30;99.90;;;;;;5035354;28;20567;-76
2023/07/31 03:26:49;;;;;;;3.93;1.80;;;17.30;99.90;;;;;;5035295;28;20176;-76
2023/07/31 03:29:15;;;;;;;2.00;1.90;;;17.40;99.90;;;;;;5046508;28;20183;-78
2023/07/31 03:31:40;;;;;;;1.93;1.83;;;17.30;99.90;;;;;;5037911;28;20234;-77
2023/07/31 03:34:06;;;;;;;1.73;1.63;;;17.30;99.90;;;;;;5041880;28;20222;-78
2023/07/31 03:36:32;;;;;;;2.83;1.83;;;17.30;99.90;;;;;;5035380;28;20180;-78
2023/07/31 03:38:58;;;;;;;2.00;1.90;;;17.40;99.90;;;;;;5031925;28;20164;-76
2023/07/31 03:41:24;;;;;;;4.80;2.00;;;17.40;99.90;;;;;;5055181;28;20549;-78
2023/07/31 03:43:55;;;;;;;2.93;1.83;;;17.40;99.90;;;;;;5056715;28;20201;-80
2023/07/31 03:46:23;;;;;;;2.13;2.00;;;17.40;99.90;;;;;;5056616;28;20147;-76
2023/07/31 03:48:49;;;;;;;2.57;2.00;;;17.40;99.90;;;;;;5054427;28;20208;-76
2023/07/31 03:51:14;;;;;;;1.77;1.67;;;17.40;99.90;;;;;;5057209;28;20170;-80
2023/07/31 03:53:40;;;;;;;4.57;2.03;;;17.30;99.90;;;;;;5057537;28;20177;-80
2023/07/31 03:56:06;;;;;;;2.10;1.90;;;17.30;99.90;;;;;;5055855;28;20169;-78
2023/07/31 03:58:32;;;;;;;2.00;1.90;;;17.30;99.90;;;;;;5054321;28;20183;-76
2023/07/31 04:00:57;;;;;;;1.73;1.70;;;17.30;99.90;;;;;;5057939;28;20240;-80
2023/07/31 04:03:23;;;;;;;2.13;2.03;;;17.40;99.90;;;;;;5058385;28;20177;-79
2023/07/31 04:05:49;;;;;;;2.83;1.90;;;17.30;99.90;;;;;;5037289;28;20254;-75
2023/07/31 04:08:15;;;;;;;2.77;2.03;;;17.40;99.90;;;;;;5034861;28;20737;-76
2023/07/31 04:10:41;;;;;;;3.37;2.10;;;17.40;99.90;;;;;;5035062;28;20181;-75
2023/07/31 04:13:06;;;;;;;2.63;2.33;;;17.40;99.90;;;;;;5035724;28;20633;-77
2023/07/31 04:15:32;;;;;;;2.50;2.30;;;17.40;99.90;;;;;;5043761;28;20236;-77
2023/07/31 04:17:58;;;;;;;4.70;2.50;;;17.40;99.90;;;;;;5036105;28;20535;-77
2023/07/31 04:20:24;;;;;;;2.90;2.53;;;17.40;99.90;;;;;;5036892;28;20176;-77
2023/07/31 04:22:49;;;;;;;2.77;2.50;;;17.50;99.90;;;;;;5035036;28;20184;-76
2023/07/31 04:25:15;;;;;;;2.50;2.40;;;17.50;99.90;;;;;;5029692;28;20183;-76
2023/07/31 04:27:42;;;;;;;2.83;2.63;;;17.50;99.90;;;;;;5040629;28;20287;-76
2023/07/31 04:30:09;;;;;;;3.00;2.80;;;17.50;99.90;;;;;;5043254;28;20207;-77
2023/07/31 04:32:35;;;;;;;3.03;2.20;;;17.50;99.90;;;;;;5049067;28;20156;-78
2023/07/31 04:35:01;;;;;;;3.33;2.60;;;17.50;99.90;;;;;;5057697;28;20168;-76
2023/07/31 04:37:27;;;;;;;2.37;2.03;;;17.50;99.90;;;;;;5040996;28;20262;-76
2023/07/31 04:39:53;;;;;;;1.57;1.57;;;17.40;99.90;;;;;;5033528;28;20207;-77
2023/07/31 04:42:18;;;;;;;2.83;2.50;;;17.40;99.90;;;;;;5033338;28;20166;-76
2023/07/31 04:44:44;;;;;;;2.57;2.43;;;17.40;99.90;;;;;;5006690;28;20280;-76
2023/07/31 04:47:10;;;;;;;2.70;2.20;;;17.40;99.90;;;;;;5014037;28;20226;-75
2023/07/31 04:49:36;;;;;;;2.20;2.10;;;17.40;99.90;;;;;;5015230;28;20210;-77
2023/07/31 04:52:02;;;;;;;2.10;2.00;;;17.30;99.90;;;;;;5000621;28;20185;-76
2023/07/31 04:54:28;;;;;;;5.07;2.13;;;17.20;99.90;;;;;;5021176;28;20260;-79
2023/07/31 04:56:54;;;;;;;4.03;2.30;;;17.10;99.90;;;;;;5020243;28;20205;-77
2023/07/31 04:59:19;;;;;;;4.03;1.80;;;17.20;99.90;;;;;;5011916;28;20181;-76
2023/07/31 05:01:45;;;;;;;2.60;2.37;;;17.20;99.90;;;;;;5029051;28;20225;-77
2023/07/31 05:04:14;;;;;;;3.17;2.33;;;17.30;99.90;;;;;;5020469;28;20185;-76
2023/07/31 05:06:40;;;;;;;2.40;2.20;;;17.40;99.90;;;;;;5018299;28;20169;-75
2023/07/31 05:09:06;;;;;;;2.37;2.27;;;17.40;99.90;;;;;;5000027;28;20576;-77
2023/07/31 05:11:32;;;;;;;2.30;2.10;;;17.60;99.90;;;;;;5013866;28;20234;-78
2023/07/31 05:13:58;;;;;;;2.90;2.13;;;17.60;99.90;;;;;;5005647;28;20189;-75
2023/07/31 05:16:24;;;;;;;2.77;2.20;;;17.70;99.90;;;;;;5020432;28;20234;-76
2023/07/31 05:18:50;;;;;;;2.10;2.00;;;17.70;99.90;;;;;;5017462;28;20651;-75
2023/07/31 05:21:16;;;;;;;4.10;2.27;;;17.80;99.90;;;;;;5017538;28;20272;-76
2023/07/31 05:23:41;;;;;;;3.83;2.33;;;17.80;99.90;;;;;;5017410;28;20201;-78
2023/07/31 05:26:09;;;;;;;2.50;2.40;;;17.90;99.90;;;;;;5017276;28;20169;-76
2023/07/31 05:28:35;;;;;;;2.87;2.70;;;17.80;99.90;;;;;;5017309;28;20290;-76
2023/07/31 05:31:02;;;;;;;3.33;2.90;;;17.80;99.90;;;;;;5017106;28;20256;-75
2023/07/31 05:33:29;;;;;;;3.53;3.30;;;17.80;99.90;;;;;;5017967;28;20172;-75
2023/07/31 05:35:55;;;;;;;3.37;3.00;;;17.70;99.90;;;;;;5017683;28;20180;-75
2023/07/31 05:38:21;;;;;;;3.27;3.07;;;17.80;99.90;;;;;;5017762;28;20188;-75
2023/07/31 05:40:47;;;;;;;3.33;3.13;;;17.90;99.90;;;;;;5017092;28;20177;-77
2023/07/31 05:43:14;;;;;;;2.97;2.67;;;18.00;99.90;;;;;;5017454;28;20178;-79
2023/07/31 05:45:43;;;;;;;3.40;3.20;;;18.10;99.90;;;;;;5039017;28;20216;-77
2023/07/31 05:48:08;;;;;;;2.93;2.77;;;18.20;99.90;;;;;;5038436;28;20247;-76
2023/07/31 05:50:34;;;;;;;5.73;2.87;;;18.30;99.90;;;;;;5037236;28;20532;-76
2023/07/31 05:53:00;;;;;;;3.93;2.90;;;18.40;99.90;;;;;;5049823;28;20176;-76
2023/07/31 05:55:29;;;;;;;2.73;2.53;;;18.40;99.90;;;;;;5037481;28;20543;-76
2023/07/31 05:57:55;;;;;;;2.90;2.70;;;18.60;99.90;;;;;;5036984;28;20180;-75
2023/07/31 06:00:22;;;;;;;3.70;3.40;;;18.60;99.90;;;;;;5036799;28;20180;-76
2023/07/31 06:02:48;;;;;;;2.90;2.70;;;18.50;99.90;;;;;;5035988;28;20165;-76
2023/07/31 06:05:14;;;;;;;3.50;3.30;;;18.60;99.90;;;;;;5036409;28;20176;-77
2023/07/31 06:07:40;;;;;;;3.30;3.00;;;18.60;99.90;;;;;;5040213;28;20204;-76
2023/07/31 06:10:06;;;;;;;3.33;3.07;;;18.70;99.90;;;;;;5020582;28;20179;-77
2023/07/31 06:12:33;;;;;;;4.50;3.00;;;18.80;99.90;;;;;;5044216;28;20220;-77
2023/07/31 06:14:58;;;;;;;7.20;3.10;;;18.90;99.90;;;;;;5059407;28;20174;-77
2023/07/31 06:17:25;;;;;;;3.43;2.90;;;19.00;99.90;;;;;;5050445;28;20263;-77
2023/07/31 06:19:51;;;;;;;2.90;2.80;;;19.20;99.90;;;;;;5018813;28;20207;-75
2023/07/31 06:22:17;;;;;;;5.67;2.97;;;19.30;99.90;;;;;;5036008;28;20180;-78
2023/07/31 06:24:43;;;;;;;3.33;2.93;;;19.40;99.90;;;;;;5036218;28;20177;-77
2023/07/31 06:27:08;;;;;;;6.83;2.90;;;19.50;99.90;;;;;;5036334;28;20620;-76
2023/07/31 06:29:34;;;;;;;3.03;2.70;;;19.50;99.90;;;;;;5035799;28;20182;-80
2023/07/31 06:32:00;;;;;;;3.90;2.70;;;19.60;99.90;;;;;;5035263;28;20191;-78
2023/07/31 06:34:26;;;;;;;3.07;2.77;;;19.60;99.90;;;;;;5035965;28;20180;-77
2023/07/31 06:36:52;;;;;;;5.03;2.97;;;19.70;99.90;;;;;;5035448;28;20200;-76
2023/07/31 06:39:18;;;;;;;6.80;3.03;;;19.80;99.90;;;;;;5055320;28;20178;-77
2023/07/31 06:41:44;;;;;;;2.93;2.73;;;19.90;99.90;;;;;;5038344;28;20264;-76
2023/07/31 06:44:10;;;;;;;6.47;2.60;;;20.00;99.90;;;;;;5035952;28;20759;-79
2023/07/31 06:46:36;;;;;;;2.53;2.43;;;20.10;99.90;;;;;;5035938;28;20636;-78
2023/07/31 06:49:02;;;;;;;3.00;2.80;;;20.20;99.90;;;;;;5038399;28;20212;-79
2023/07/31 06:51:28;;;;;;;4.33;3.00;;;20.20;99.90;;;;;;5057263;28;20172;-79
2023/07/31 06:53:54;;;;;;;3.03;2.83;;;20.20;99.90;;;;;;5039600;28;20636;-75
2023/07/31 06:56:21;;;;;;;2.50;2.30;;;20.20;99.90;;;;;;5035207;28;20168;-77
2023/07/31 06:58:47;;;;;;;2.97;2.70;;;20.20;99.90;;;;;;5018292;28;20191;-76
2023/07/31 07:01:13;;;;;;;2.40;2.20;;;20.30;99.90;;;;;;5035859;28;20251;-75
2023/07/31 07:03:38;;;;;;;2.63;2.43;;;20.50;99.90;;;;;;5033290;28;20231;-77
2023/07/31 07:06:04;;;;;;;2.30;2.20;;;20.50;99.90;;;;;;5014141;28;20185;-77
2023/07/31 07:08:30;;;;;;;2.50;2.30;;;20.70;99.90;;;;;;5016604;28;20702;-76
2023/07/31 07:10:56;;;;;;;2.50;2.40;;;20.70;99.90;;;;;;5034761;28;20212;-77
2023/07/31 07:13:22;;;;;;;3.23;2.60;;;20.90;99.90;;;;;;5034946;28;20176;-76
2023/07/31 07:15:49;;;;;;;3.83;2.47;;;20.90;99.90;;;;;;5033574;28;20184;-77
2023/07/31 07:18:15;;;;;;;3.00;2.23;;;21.00;99.90;;;;;;5034502;28;20173;-75
2023/07/31 07:20:45;;;;;;;2.10;2.00;;;21.10;99.90;;;;;;5034597;28;20199;-76
2023/07/31 07:23:11;;;;;;;2.47;2.37;;;21.20;99.90;;;;;;5034467;28;20180;-77
2023/07/31 07:25:38;;;;;;;2.50;2.40;;;21.20;99.90;;;;;;5017127;28;20173;-77
2023/07/31 07:28:04;;;;;;;1.93;1.83;;;21.30;99.90;;;;;;5016548;28;20210;-79
2023/07/31 07:30:29;;;;;;;2.47;2.13;;;21.30;99.90;;;;;;5044142;28;20532;-78
2023/07/31 07:32:55;;;;;;;3.03;2.30;;;21.20;99.90;;;;;;5035996;28;20230;-76
2023/07/31 07:35:22;;;;;;;2.37;2.27;;;21.30;99.90;;;;;;5034099;28;20172;-77
2023/07/31 07:37:50;;;;;;;2.30;2.10;;;21.40;99.90;;;;;;5015263;28;20805;-76
2023/07/31 07:40:16;;;;;;;2.20;2.10;;;21.50;99.90;;;;;;5016593;28;20275;-76
2023/07/31 07:42:42;;;;;;;2.23;2.03;;;21.50;99.90;;;;;;5034362;28;20632;-76
2023/07/31 07:45:08;;;;;;;2.47;2.27;;;21.60;99.90;;;;;;5017995;28;20223;-78
2023/07/31 07:47:34;;;;;;;3.00;2.80;;;21.70;99.90;;;;;;5039309;28;20265;-77
2023/07/31 07:50:00;;;;;;;3.57;3.27;;;21.70;99.90;;;;;;5041566;28;20227;-75
2023/07/31 07:52:26;;;;;;;3.30;2.73;;;21.70;99.90;;;;;;5038805;28;20179;-76
2023/07/31 07:54:52;;;;;;;3.30;2.50;;;21.80;99.90;;;;;;5047195;28;20161;-76
2023/07/31 07:57:18;;;;;;;2.60;2.40;;;21.90;99.90;;;;;;5049853;28;20241;-76
2023/07/31 07:59:44;;;;;;;2.30;2.20;;;22.00;99.90;;;;;;5034884;28;20655;-78
2023/07/31 08:02:09;;;;;;;3.73;2.20;;;22.10;99.90;;;;;;5034020;28;20169;-78
2023/07/31 08:04:35;;;;;;;2.20;2.10;;;22.20;99.90;;;;;;5016249;28;20180;-77
2023/07/31 08:07:01;;;;;;;1.90;1.80;;;22.20;99.90;;;;;;5033859;28;20753;-76
2023/07/31 08:09:27;;;;;;;2.70;2.10;;;22.30;99.90;;;;;;5033951;28;20259;-76
2023/07/31 08:11:52;;;;;;;3.50;3.20;;;22.40;99.90;;;;;;5034089;28;20168;-77
2023/07/31 08:14:18;;;;;;;2.70;2.50;;;22.60;99.90;;;;;;5033882;28;20504;-76
2023/07/31 08:16:45;;;;;;;4.37;3.97;;;22.60;99.90;;;;;;5040780;28;20253;-77
2023/07/31 08:19:11;;;;;;;3.13;2.92;;;22.60;99.90;;;;;;5045287;28;20179;-75
2023/07/31 08:21:37;;;;;;;3.97;3.10;;;22.70;99.90;;;;;;5034278;28;20255;-76
2023/07/31 08:24:03;;;;;;;1.97;1.70;;;22.80;99.90;;;;;;5033482;28;20194;-76
2023/07/31 08:26:28;;;;;;;2.60;2.40;;;22.90;99.90;;;;;;5033487;28;20168;-76
2023/07/31 08:28:54;;;;;;;2.87;2.10;;;22.70;99.90;;;;;;5048420;28;20195;-77
2023/07/31 08:31:20;;;;;;;2.00;1.87;;;22.60;99.90;;;;;;5025215;28;20188;-76
2023/07/31 08:33:46;;;;;;;1.87;1.80;;;22.50;99.90;;;;;;5034648;28;20278;-76
2023/07/31 08:36:11;;;;;;;3.60;3.23;;;22.50;99.90;;;;;;5033677;28;20172;-75
2023/07/31 08:38:37;;;;;;;2.40;2.20;;;22.50;99.90;;;;;;5033582;28;20207;-76
2023/07/31 08:41:04;;;;;;;2.20;2.10;;;22.70;99.90;;;;;;5033290;28;20179;-76
2023/07/31 08:43:31;;;;;;;3.50;3.20;;;22.90;99.90;;;;;;5034660;28;20239;-77
2023/07/31 08:45:57;;;;;;;7.00;4.53;;;22.90;99.90;;;;;;5033824;28;20303;-77
2023/07/31 08:48:23;;;;;;;2.00;1.90;;;22.80;99.90;;;;;;5033642;28;20212;-76
2023/07/31 08:50:51;;;;;;;2.23;2.13;;;22.80;99.90;;;;;;5034295;28;20172;-76
2023/07/31 08:53:17;;;;;;;3.73;3.43;;;22.80;99.90;;;;;;5037755;28;20178;-76
2023/07/31 08:55:44;;;;;;;1.90;1.80;;;22.80;99.90;;;;;;5017759;28;20180;-78
2023/07/31 08:58:12;;;;;;;1.80;1.70;;;22.90;99.90;;;;;;5034967;28;20180;-75
2023/07/31 09:00:39;;;;;;;1.85;1.75;;;23.10;99.90;;;;;;5033414;28;20173;-76
2023/07/31 09:03:18;;;;;;;2.43;2.30;;;23.30;99.90;;;;;;5032833;28;20195;-77
2023/07/31 09:05:46;;;;;;;2.72;2.20;;;23.30;99.90;;;;;;5032684;28;20264;-77
2023/07/31 09:08:18;;;;;;;1.73;1.73;;;23.40;99.90;;;;;;5033080;28;20210;-75
2023/07/31 09:10:46;;;;;;;2.27;2.17;;;23.40;99.90;;;;;;5032786;28;20168;-76
2023/07/31 09:13:15;;;;;;;2.67;2.42;;;23.50;99.90;;;;;;5032782;28;20172;-77
2023/07/31 09:15:44;;;;;;;2.03;1.92;;;23.40;99.90;;;;;;5032703;28;20233;-75
2023/07/31 09:18:10;;;;;;;1.80;1.70;;;23.40;99.90;;;;;;5032569;28;20179;-75
2023/07/31 09:20:37;;;;;;;2.10;2.00;;;23.50;99.90;;;;;;5032556;28;20177;-75
2023/07/31 09:23:12;;;;;;;1.58;1.58;;;23.50;99.90;;;;;;5032605;28;20196;-75
2023/07/31 09:25:39;;;;;;;2.25;2.15;;;23.70;99.90;;;;;;5032642;28;20535;-75
2023/07/31 09:28:09;;;;;;;1.70;1.70;;;23.60;99.90;;;;;;5032538;28;20208;-76
2023/07/31 09:30:53;;;;;;;6.75;2.70;;;23.60;99.90;;;;;;5032622;28;20176;-76
2023/07/31 09:33:19;;;;;;;1.88;1.77;;;23.70;99.90;;;;;;5037511;28;20156;-79
2023/07/31 09:35:47;;;;;;;1.90;1.80;;;23.80;99.90;;;;;;5056325;28;20176;-75
2023/07/31 09:38:14;;;;;;;2.35;2.15;;;23.90;99.90;;;;;;5053895;28;20211;-77
2023/07/31 09:40:51;;;;;;;2.63;2.47;;;24.00;99.90;;;;;;5024558;28;20232;-78
2023/07/31 09:43:21;;;;;;;2.78;2.42;;;24.10;99.90;;;;;;5036540;28;20247;-78
2023/07/31 09:45:47;;;;;;;2.90;2.70;;;24.20;99.90;;;;;;5036527;28;20224;-78
2023/07/31 09:48:16;;;;;;;6.10;4.45;;;24.40;99.90;;;;;;5036778;28;20211;-77
2023/07/31 09:50:45;;;;;;;2.10;2.00;;;24.50;99.90;;;;;;5036365;28;20618;-77
2023/07/31 09:53:11;;;;;;;1.95;1.90;;;24.50;99.90;;;;;;5026417;28;20234;-78
2023/07/31 09:55:38;;;;;;;1.65;1.55;;;24.60;99.90;;;;;;5050850;28;20157;-76
2023/07/31 09:58:09;;;;;;;2.75;1.70;;;24.70;99.90;;;;;;5041972;28;20263;-77
2023/07/31 10:00:36;;;;;;;2.30;2.20;;;24.70;99.90;;;;;;5036627;28;20179;-76
2023/07/31 10:03:06;;;;;;;1.75;1.73;;;24.80;99.90;;;;;;5036431;28;20526;-76
2023/07/31 10:05:40;;;;;;;1.65;1.65;;;24.90;99.90;;;;;;5042308;28;20165;-77
2023/07/31 10:08:08;;;;;;;1.90;1.80;;;24.90;99.90;;;;;;5051607;28;20256;-75
2023/07/31 10:10:36;;;;;;;1.90;1.80;;;25.00;99.90;;;;;;5036143;28;20176;-77
2023/07/31 10:13:03;;;;;;;1.90;1.80;;;24.60;99.90;;;;;;5035941;28;20187;-77
2023/07/31 10:15:30;;;;;;;1.85;1.80;;;24.70;99.90;;;;;;5037005;28;20177;-76
2023/07/31 10:17:58;;;;;;;2.03;1.92;;;24.90;99.90;;;;;;5035873;28;20579;-76
2023/07/31 10:20:24;;;;;;;1.77;1.70;;;24.90;99.90;;;;;;5036071;28;20188;-75
2023/07/31 10:22:51;;;;;;;2.00;1.90;;;25.00;99.90;;;;;;5036121;28;20173;-76
2023/07/31 10:25:19;;;;;;;2.42;2.05;;;25.00;99.90;;;;;;5035874;28;20255;-77
2023/07/31 10:27:47;;;;;;;1.55;1.55;;;25.20;99.90;;;;;;5036349;28;20291;-76
2023/07/31 10:30:18;;;;;;;2.05;1.95;;;25.20;99.90;;;;;;5035981;28;20223;-75
2023/07/31 10:32:46;;;;;;;2.10;2.00;;;25.20;99.90;;;;;;5035987;28;20295;-76
2023/07/31 10:35:12;;;;;;;2.25;2.08;;;25.20;99.90;;;;;;5035857;28;20176;-76
2023/07/31 10:37:42;;;;;;;1.95;1.85;;;25.30;99.90;;;;;;5039295;28;20177;-77
2023/07/31 10:40:13;;;;;;;2.00;1.90;;;25.30;99.90;;;;;;5037770;28;20223;-77
2023/07/31 10:42:48;;;;;;;1.63;1.63;;;25.30;99.90;;;;;;5035572;28;20172;-77
2023/07/31 10:45:23;;;;;;;1.60;1.60;;;25.30;99.90;;;;;;5035066;28;20220;-76
2023/07/31 10:47:49;;;;;;;4.10;1.70;;;25.30;99.90;;;;;;5035406;28;20607;-76
2023/07/31 10:50:20;;;;;;;2.08;1.90;;;25.30;99.90;;;;;;5035456;28;20168;-75
2023/07/31 10:52:57;;;;;;;1.95;1.90;;;25.10;99.90;;;;;;5035682;28;20172;-75
2023/07/31 10:55:29;;;;;;;2.10;1.90;;;25.20;99.90;;;;;;5035522;28;20164;-75
2023/07/31 10:57:58;;;;;;;2.65;2.28;;;25.20;99.90;;;;;;5035747;28;20173;-76
2023/07/31 11:00:28;;;;;;;2.13;2.03;;;25.30;99.90;;;;;;5035185;28;20169;-76
2023/07/31 11:03:01;;;;;;;2.13;2.00;;;25.50;99.90;;;;;;5036361;28;20172;-76
2023/07/31 11:05:48;;;;;;;1.90;1.80;;;25.60;99.90;;;;;;5037120;28;20206;-75
2023/07/31 11:08:28;;;;;;;1.85;1.75;;;25.70;99.90;;;;;;5038183;28;20208;-77
2023/07/31 11:11:02;;;;;;;2.15;1.95;;;25.80;99.90;;;;;;5035299;28;20156;-75
2023/07/31 11:13:29;;;;;;;2.03;1.80;;;26.10;99.90;;;;;;5035157;28;20234;-77
2023/07/31 11:15:54;;;;;;;2.63;2.00;;;26.50;99.90;;;;;;5058382;28;20180;-78
2023/07/31 11:18:20;;;;;;;1.90;1.80;;;26.60;99.90;;;;;;5056805;28;20186;-75
2023/07/31 11:20:46;;;;;;;1.70;1.70;;;26.80;99.90;;;;;;5036189;28;20172;-76
2023/07/31 11:23:12;;;;;;;2.08;1.95;;;26.90;99.90;;;;;;5018307;28;20173;-75
2023/07/31 11:25:42;;;;;;;1.88;1.88;;;27.00;99.90;;;;;;5035182;28;20176;-76
2023/07/31 11:28:14;;;;;;;2.28;2.00;;;27.10;99.90;;;;;;5034693;28;20274;-76
2023/07/31 11:30:41;;;;;;;1.85;1.75;;;27.00;99.90;;;;;;5035049;28;20284;-76
2023/07/31 11:33:09;;;;;;;1.83;1.83;;;27.20;99.90;;;;;;5042126;28;20168;-78
2023/07/31 11:35:44;;;;;;;1.85;1.85;;;27.30;99.90;;;;;;5044858;28;20184;-76
2023/07/31 11:38:12;;;;;;;1.77;1.67;;;27.20;99.90;;;;;;5034564;28;20221;-75
2023/07/31 11:40:42;;;;;;;2.00;1.90;;;27.20;99.90;;;;;;5034171;28;20665;-78
2023/07/31 11:43:08;;;;;;;2.08;1.90;;;27.10;99.90;;;;;;5037803;28;20169;-77
2023/07/31 11:45:35;;;;;;;2.45;2.03;;;27.30;99.90;;;;;;5052914;28;20216;-77
2023/07/31 11:48:01;;;;;;;1.90;1.80;;;27.30;99.90;;;;;;5038105;28;20238;-75
2023/07/31 11:50:27;;;;;;;1.98;1.88;;;27.40;99.90;;;;;;5034403;28;20180;-76
2023/07/31 11:52:59;;;;;;;2.13;2.03;;;27.50;99.90;;;;;;5033950;28;20534;-77
2023/07/31 11:55:27;;;;;;;2.10;2.00;;;27.50;99.90;;;;;;5033783;28;20165;-77
2023/07/31 11:57:55;;;;;;;2.08;1.98;;;27.40;99.90;;;;;;5046908;28;20185;-76
2023/07/31 12:00:21;;;;;;;1.88;1.77;;;27.40;99.90;;;;;;5038491;28;20180;-76
2023/07/31 12:02:47;;;;;;;1.70;1.70;;;27.50;99.90;;;;;;5015860;28;20644;-75
2023/07/31 12:05:14;;;;;;;2.03;1.92;;;27.70;99.90;;;;;;5033556;28;20186;-75
2023/07/31 12:07:53;;;;;;;2.17;2.00;;;27.80;99.90;;;;;;5034109;28;20239;-76
2023/07/31 12:10:29;;;;;;;2.20;2.08;;;27.80;99.90;;;;;;5034331;28;20536;-77
2023/07/31 12:13:04;;;;;;;1.92;1.83;;;27.60;99.90;;;;;;5033699;28;20188;-75
2023/07/31 12:15:38;;;;;;;2.83;2.03;;;27.70;99.90;;;;;;5033343;28;20568;-77
2023/07/31 12:18:14;;;;;;;1.95;1.85;;;27.80;99.90;;;;;;5016045;28;20176;-75
2023/07/31 12:20:45;;;;;;;1.67;1.65;;;27.80;99.90;;;;;;5035508;28;20537;-75
2023/07/31 12:23:28;;;;;;;1.90;1.80;;;27.80;99.00;;;;;;5019227;28;20184;-76
2023/07/31 12:26:13;;;;;;;2.00;1.90;;;27.70;99.90;;;;;;5036336;28;20157;-77
2023/07/31 12:28:47;;;;;;;1.95;1.85;;;27.70;99.90;;;;;;5016345;28;20277;-76
2023/07/31 12:31:18;;;;;;;3.95;3.65;;;27.70;99.90;;;;;;5033653;28;20187;-76
2023/07/31 12:33:49;;;;;;;2.25;2.15;;;27.70;99.90;;;;;;5034312;28;20164;-76
2023/07/31 12:36:23;;;;;;;2.30;2.20;;;27.60;99.90;;;;;;5034143;28;20157;-78
2023/07/31 12:38:52;;;;;;;2.22;2.13;;;27.60;99.90;;;;;;5033916;28;20164;-75
2023/07/31 12:41:21;;;;;;;2.10;1.85;;;27.80;99.90;;;;;;5033558;28;20528;-76
2023/07/31 12:43:47;;;;;;;1.90;1.80;;;27.60;99.90;;;;;;5033304;28;20260;-77
2023/07/31 12:46:14;;;;;;;1.85;1.55;;;27.60;99.90;;;;;;5033596;28;20220;-79
2023/07/31 12:48:40;;;;;;;2.25;2.13;;;27.50;99.90;;;;;;5033349;28;20208;-77
2023/07/31 12:51:09;;;;;;;2.53;2.30;;;27.40;99.90;;;;;;5033777;28;20200;-75